createdAt,value
2024-02-24T00:00:02.400Z,3.960
2024-02-24T00:02:01.924Z,5.880
2024-02-24T00:03:02.000Z,5.240
2024-02-24T00:04:01.680Z,5.400
2024-02-24T00:05:02.590Z,5.480
2024-02-24T00:06:02.902Z,6.160
2024-02-24T00:07:01.987Z,6.040
2024-02-24T00:09:01.984Z,5.080
2024-02-24T00:10:02.673Z,4.052
2024-02-24T00:11:02.479Z,3.498
2024-02-24T00:13:01.992Z,5.320
2024-02-24T00:14:02.021Z,5.320
2024-02-24T00:15:01.995Z,4.280
2024-02-24T00:16:02.729Z,4.446
2024-02-24T00:17:02.564Z,5.776
2024-02-24T00:18:02.035Z,4.760
2024-02-24T00:19:02.347Z,4.160
2024-02-24T00:20:02.720Z,4.520
2024-02-24T00:21:01.912Z,5.880
2024-02-24T00:22:02.710Z,5.036
2024-02-24T00:25:02.120Z,6.760
2024-02-24T00:26:01.760Z,6.200
2024-02-24T00:27:02.533Z,5.840
2024-02-24T00:28:02.363Z,6.360
2024-02-24T00:29:02.195Z,5.000
2024-02-24T00:30:02.293Z,5.960
2024-02-24T00:31:02.127Z,6.000
2024-02-24T00:32:01.998Z,6.800
2024-02-24T00:33:01.873Z,6.880
2024-02-24T00:34:02.750Z,6.649
2024-02-24T00:37:02.338Z,4.840
2024-02-24T00:38:02.049Z,4.680
2024-02-24T00:40:02.634Z,5.508
2024-02-24T00:41:02.522Z,5.776
2024-02-24T00:42:02.595Z,4.840
2024-02-24T00:44:01.947Z,5.600
2024-02-24T00:45:02.695Z,6.649
2024-02-24T00:47:01.988Z,4.880
2024-02-24T00:48:02.043Z,6.160
2024-02-24T00:49:02.168Z,7.000
2024-02-24T00:50:01.982Z,5.600
2024-02-24T00:51:01.823Z,5.360
2024-02-24T00:52:02.550Z,5.480
2024-02-24T00:53:02.231Z,6.120
2024-02-24T00:55:01.847Z,4.320
2024-02-24T00:56:02.797Z,5.360
2024-02-24T00:57:02.706Z,5.666
2024-02-24T00:58:02.427Z,5.532
2024-02-24T00:59:02.053Z,3.720
2024-02-24T01:00:01.909Z,4.120
2024-02-24T01:01:02.809Z,4.997
2024-02-24T01:03:02.107Z,4.480
2024-02-24T01:04:01.786Z,4.080
2024-02-24T01:05:01.916Z,3.760
2024-02-24T01:06:02.705Z,3.502
2024-02-24T01:07:02.460Z,6.142
2024-02-24T01:08:02.592Z,4.997
2024-02-24T01:09:02.351Z,5.573
2024-02-24T01:10:02.015Z,4.920
2024-02-24T01:13:01.900Z,4.680
2024-02-24T01:14:02.855Z,4.485
2024-02-24T01:15:02.211Z,5.125
2024-02-24T01:16:02.242Z,5.320
2024-02-24T01:18:02.278Z,4.400
2024-02-24T01:19:02.397Z,3.280
2024-02-24T01:20:02.492Z,2.480
2024-02-24T01:21:02.426Z,3.760
2024-02-24T01:24:01.859Z,3.200
2024-02-24T01:25:02.547Z,4.000
2024-02-24T01:26:02.229Z,4.040
2024-02-24T01:29:02.588Z,4.640
2024-02-24T01:30:02.638Z,2.520
2024-02-24T01:31:02.730Z,4.328
2024-02-24T01:32:02.524Z,5.044
2024-02-24T01:35:02.120Z,5.880
2024-02-24T01:36:02.310Z,4.880
2024-02-24T01:39:01.808Z,4.920
2024-02-24T01:40:02.527Z,5.800
2024-02-24T01:41:02.343Z,5.280
2024-02-24T01:44:02.583Z,6.560
2024-02-24T01:46:02.357Z,4.800
2024-02-24T01:47:02.486Z,7.480
2024-02-24T01:48:02.376Z,5.000
2024-02-24T01:51:02.665Z,4.210
2024-02-24T01:52:02.286Z,5.166
2024-02-24T01:54:01.852Z,5.360
2024-02-24T01:55:02.535Z,5.600
2024-02-24T01:56:02.304Z,5.560
2024-02-24T01:57:02.201Z,4.800
2024-02-24T01:58:01.927Z,4.160
2024-02-24T02:00:01.723Z,6.480
2024-02-24T02:01:02.677Z,4.960
2024-02-24T02:02:02.655Z,7.003
2024-02-24T02:03:02.506Z,6.386
2024-02-24T02:04:02.247Z,7.040
2024-02-24T02:05:02.513Z,7.160
2024-02-24T02:06:02.371Z,5.440
2024-02-24T02:07:02.516Z,6.840
2024-02-24T02:08:02.172Z,6.800
2024-02-24T02:09:02.513Z,4.680
2024-02-24T02:11:02.520Z,6.440
2024-02-24T02:12:07.103Z,6.600
2024-02-24T02:14:01.961Z,5.520
2024-02-24T02:16:02.643Z,5.600
2024-02-24T02:18:02.484Z,6.040
2024-02-24T02:19:02.911Z,5.360
2024-02-24T02:20:01.886Z,4.400
2024-02-24T02:21:02.394Z,6.280
2024-02-24T02:22:02.061Z,6.200
2024-02-24T02:23:01.750Z,5.120
2024-02-24T02:24:02.700Z,5.587
2024-02-24T02:25:02.445Z,6.264
2024-02-24T02:28:02.111Z,6.520
2024-02-24T02:29:02.756Z,6.295
2024-02-24T02:30:02.698Z,7.000
2024-02-24T02:31:02.348Z,7.647
2024-02-24T02:33:02.448Z,6.120
2024-02-24T02:34:02.553Z,7.920
2024-02-24T02:35:01.959Z,6.240
2024-02-24T02:36:01.907Z,4.640
2024-02-24T02:37:02.690Z,5.666
2024-02-24T02:39:02.194Z,4.880
2024-02-24T02:40:02.030Z,3.920
2024-02-24T02:41:02.732Z,5.154
2024-02-24T02:42:02.604Z,3.783
2024-02-24T02:43:02.360Z,4.040
2024-02-24T02:45:01.879Z,4.600
2024-02-24T02:46:02.609Z,4.960
2024-02-24T02:49:02.824Z,3.920
2024-02-24T02:50:02.628Z,3.320
2024-02-24T02:51:02.421Z,4.080
2024-02-24T02:53:01.711Z,5.000
2024-02-24T02:54:02.541Z,4.760
2024-02-24T02:55:02.262Z,3.240
2024-02-24T02:56:01.911Z,4.240
2024-02-24T02:57:02.646Z,5.193
2024-02-24T02:58:02.278Z,5.329
2024-02-24T03:00:01.799Z,4.320
2024-02-24T03:01:02.687Z,4.720
2024-02-24T03:02:01.860Z,3.520
2024-02-24T03:05:02.632Z,4.131
2024-02-24T03:06:02.815Z,4.800
2024-02-24T03:07:01.921Z,5.400
2024-02-24T03:08:02.564Z,5.840
2024-02-24T03:10:02.085Z,5.320
2024-02-24T03:11:02.234Z,5.080
2024-02-24T03:12:02.436Z,4.520
2024-02-24T03:13:02.093Z,5.560
2024-02-24T03:15:02.593Z,4.720
2024-02-24T03:16:02.368Z,5.560
2024-02-24T03:18:02.186Z,4.520
2024-02-24T03:21:02.037Z,4.120
2024-02-24T03:22:02.648Z,5.587
2024-02-24T03:23:02.564Z,5.207
2024-02-24T03:24:02.616Z,4.446
2024-02-24T03:26:02.159Z,4.760
2024-02-24T03:27:02.004Z,5.240
2024-02-24T03:28:01.747Z,4.280
2024-02-24T03:29:02.450Z,4.600
2024-02-24T03:30:02.545Z,5.080
2024-02-24T03:31:02.202Z,4.600
2024-02-24T03:32:01.932Z,4.800
2024-02-24T03:33:01.962Z,5.360
2024-02-24T03:34:02.858Z,4.643
2024-02-24T03:37:02.683Z,4.013
2024-02-24T03:39:02.390Z,5.680
2024-02-24T03:40:02.098Z,4.800
2024-02-24T03:42:02.691Z,4.485
2024-02-24T03:43:02.396Z,6.305
2024-02-24T03:45:02.020Z,5.240
2024-02-24T03:46:02.709Z,5.548
2024-02-24T03:47:02.546Z,5.166
2024-02-24T03:48:02.919Z,5.520
2024-02-24T03:49:01.931Z,4.160
2024-02-24T03:50:02.253Z,5.440
2024-02-24T03:52:01.828Z,4.640
2024-02-24T03:53:02.440Z,4.520
2024-02-24T03:54:02.324Z,5.720
2024-02-24T03:55:01.955Z,5.720
2024-02-24T03:56:02.621Z,6.720
2024-02-24T03:57:01.924Z,6.400
2024-02-24T03:58:02.609Z,6.177
2024-02-24T04:00:02.199Z,6.120
2024-02-24T04:01:02.159Z,5.400
2024-02-24T04:02:02.185Z,5.320
2024-02-24T04:03:01.941Z,4.600
2024-02-24T04:04:02.722Z,4.328
2024-02-24T04:05:01.897Z,4.312
2024-02-24T04:06:02.189Z,4.720
2024-02-24T04:07:02.577Z,2.920
2024-02-24T04:08:02.239Z,4.480
2024-02-24T04:09:02.300Z,5.200
2024-02-24T04:10:02.410Z,5.400
2024-02-24T04:11:02.136Z,5.120
2024-02-24T04:12:02.723Z,6.680
2024-02-24T04:13:01.944Z,4.640
2024-02-24T04:14:02.599Z,5.548
2024-02-24T04:15:02.497Z,3.376
2024-02-24T04:17:01.946Z,4.840
2024-02-24T04:18:03.173Z,5.311
2024-02-24T04:19:02.806Z,4.597
2024-02-24T04:20:01.971Z,4.760
2024-02-24T04:21:02.825Z,5.272
2024-02-24T04:22:02.476Z,5.288
2024-02-24T04:24:02.156Z,4.760
2024-02-24T04:25:01.759Z,4.200
2024-02-24T04:26:02.480Z,4.600
2024-02-24T04:28:01.907Z,4.680
2024-02-24T04:29:02.676Z,4.643
2024-02-24T04:30:02.509Z,5.695
2024-02-24T04:32:01.820Z,4.440
2024-02-24T04:33:02.028Z,4.520
2024-02-24T04:34:02.884Z,4.400
2024-02-24T04:35:02.174Z,3.720
2024-02-24T04:36:02.334Z,4.160
2024-02-24T04:37:02.044Z,4.600
2024-02-24T04:38:02.692Z,5.115
2024-02-24T04:41:02.459Z,4.556
2024-02-24T04:42:02.277Z,6.040
2024-02-24T04:43:01.897Z,6.240
2024-02-24T04:44:02.566Z,5.800
2024-02-24T04:45:02.494Z,5.000
2024-02-24T04:47:01.822Z,4.960
2024-02-24T04:48:03.101Z,4.400
2024-02-24T04:49:01.825Z,5.360
2024-02-24T04:50:02.023Z,4.600
2024-02-24T04:51:06.126Z,5.400
2024-02-24T04:53:02.611Z,4.880
2024-02-24T04:54:02.401Z,4.960
2024-02-24T04:56:01.884Z,4.920
2024-02-24T04:57:02.752Z,4.643
2024-02-24T04:58:02.391Z,5.085
2024-02-24T04:59:02.062Z,6.080
2024-02-24T05:00:01.802Z,4.280
2024-02-24T05:01:02.664Z,5.040
2024-02-24T05:02:02.686Z,6.610
2024-02-24T05:03:02.522Z,4.841
2024-02-24T05:05:01.960Z,5.360
2024-02-24T05:06:02.240Z,4.320
2024-02-24T05:07:02.671Z,5.320
2024-02-24T05:08:02.425Z,5.080
2024-02-24T05:09:02.811Z,6.160
2024-02-24T05:10:02.206Z,5.400
2024-02-24T05:13:04.998Z,5.000
2024-02-24T05:15:02.592Z,6.216
2024-02-24T05:16:02.265Z,6.305
2024-02-24T05:18:03.057Z,4.682
2024-02-24T05:19:01.981Z,3.986
2024-02-24T05:20:02.265Z,5.920
2024-02-24T05:21:02.296Z,5.200
2024-02-24T05:22:01.942Z,4.840
2024-02-24T05:23:02.532Z,5.200
2024-02-24T05:24:02.391Z,4.560
2024-02-24T05:26:02.005Z,5.880
2024-02-24T05:27:01.737Z,4.840
2024-02-24T05:28:02.420Z,4.280
2024-02-24T05:30:02.104Z,5.480
2024-02-24T05:31:01.825Z,4.040
2024-02-24T05:32:02.546Z,5.360
2024-02-24T05:33:03.421Z,5.200
2024-02-24T05:34:02.354Z,4.560
2024-02-24T05:36:02.733Z,4.092
2024-02-24T05:37:02.445Z,3.986
2024-02-24T05:40:01.855Z,3.960
2024-02-24T05:41:02.657Z,4.800
2024-02-24T05:42:02.382Z,6.590
2024-02-24T05:45:02.827Z,4.680
2024-02-24T05:46:06.710Z,6.320
2024-02-24T05:47:02.444Z,5.840
2024-02-24T05:48:02.407Z,5.600
2024-02-24T05:49:01.782Z,7.520
2024-02-24T05:50:02.699Z,6.925
2024-02-24T05:51:02.829Z,7.360
2024-02-24T05:52:02.497Z,7.159
2024-02-24T05:53:02.190Z,6.760
2024-02-24T05:54:02.326Z,8.040
2024-02-24T05:55:02.187Z,7.280
2024-02-24T05:56:01.945Z,7.680
2024-02-24T05:57:02.122Z,7.680
2024-02-24T05:58:01.797Z,8.760
2024-02-24T05:59:02.503Z,8.080
2024-02-24T06:00:02.313Z,6.360
2024-02-24T06:01:02.103Z,5.320
2024-02-24T06:03:01.901Z,6.120
2024-02-24T06:04:01.972Z,6.160
2024-02-24T06:05:02.707Z,5.784
2024-02-24T06:06:01.901Z,5.654
2024-02-24T06:07:02.334Z,7.880
2024-02-24T06:08:02.217Z,5.880
2024-02-24T06:09:02.274Z,5.680
2024-02-24T06:10:02.041Z,5.680
2024-02-24T06:12:02.681Z,5.960
2024-02-24T06:13:01.798Z,5.280
2024-02-24T06:14:02.423Z,5.040
2024-02-24T06:16:01.983Z,3.440
2024-02-24T06:17:02.691Z,2.361
2024-02-24T06:18:02.862Z,3.320
2024-02-24T06:20:02.565Z,3.360
2024-02-24T06:21:02.490Z,4.280
2024-02-24T06:22:02.500Z,6.240
2024-02-24T06:23:02.661Z,5.980
2024-02-24T06:24:02.724Z,6.200
2024-02-24T06:25:02.500Z,7.525
2024-02-24T06:26:02.151Z,7.120
2024-02-24T06:27:01.997Z,8.560
2024-02-24T06:28:02.658Z,6.452
2024-02-24T06:29:02.430Z,7.769
2024-02-24T06:31:02.218Z,6.880
2024-02-24T06:32:01.914Z,6.920
2024-02-24T06:33:02.941Z,6.374
2024-02-24T06:34:06.089Z,4.719
2024-02-24T06:35:02.829Z,7.161
2024-02-24T06:36:02.600Z,6.671
2024-02-24T06:37:02.347Z,3.640
2024-02-24T06:38:02.047Z,4.960
2024-02-24T06:40:02.595Z,4.840
2024-02-24T06:41:02.407Z,4.560
2024-02-24T06:42:02.342Z,5.880
2024-02-24T06:43:02.044Z,4.880
2024-02-24T06:45:02.605Z,6.280
2024-02-24T06:46:02.472Z,4.800
2024-02-24T06:49:03.085Z,6.680
2024-02-24T06:50:02.193Z,6.834
2024-02-24T06:51:02.263Z,4.560
2024-02-24T06:52:02.140Z,3.240
2024-02-24T06:53:01.840Z,3.120
2024-02-24T06:54:01.903Z,4.120
2024-02-24T06:55:02.725Z,4.131
2024-02-24T06:56:02.566Z,3.800
2024-02-24T06:57:05.498Z,4.560
2024-02-24T06:58:02.148Z,4.963
2024-02-24T06:59:01.793Z,5.000
2024-02-24T07:00:02.626Z,4.240
2024-02-24T07:01:02.404Z,3.960
2024-02-24T07:04:02.068Z,4.000
2024-02-24T07:05:01.713Z,4.800
2024-02-24T07:06:03.258Z,4.289
2024-02-24T07:07:02.495Z,4.800
2024-02-24T07:08:02.663Z,4.960
2024-02-24T07:09:02.755Z,3.541
2024-02-24T07:11:02.313Z,5.200
2024-02-24T07:12:02.713Z,4.200
2024-02-24T07:13:01.776Z,5.200
2024-02-24T07:14:02.433Z,5.240
2024-02-24T07:15:02.504Z,6.720
2024-02-24T07:16:02.153Z,7.560
2024-02-24T07:17:01.876Z,6.320
2024-02-24T07:18:01.873Z,4.760
2024-02-24T07:19:02.807Z,4.120
2024-02-24T07:20:01.709Z,4.920
2024-02-24T07:21:04.209Z,3.738
2024-02-24T07:23:02.077Z,6.720
2024-02-24T07:24:01.829Z,5.000
2024-02-24T07:25:02.555Z,8.000
2024-02-24T07:26:02.288Z,6.280
2024-02-24T07:27:02.291Z,5.400
2024-02-24T07:28:02.182Z,6.400
2024-02-24T07:29:01.886Z,3.920
2024-02-24T07:30:02.677Z,5.800
2024-02-24T07:31:02.408Z,6.280
2024-02-24T07:32:02.131Z,3.520
2024-02-24T07:33:02.058Z,6.800
2024-02-24T07:34:02.664Z,6.600
2024-02-24T07:36:02.126Z,7.280
2024-02-24T07:37:01.832Z,6.200
2024-02-24T07:38:02.490Z,5.560
2024-02-24T07:39:02.406Z,4.280
2024-02-24T07:41:01.898Z,2.800
2024-02-24T07:42:02.664Z,3.560
2024-02-24T07:43:02.283Z,4.680
2024-02-24T07:44:01.935Z,4.320
2024-02-24T07:46:01.733Z,3.640
2024-02-24T07:47:02.496Z,1.960
2024-02-24T07:48:02.459Z,1.360
2024-02-24T07:51:02.448Z,0.840
2024-02-24T07:52:02.229Z,3.560
2024-02-24T07:54:02.856Z,3.777
2024-02-24T07:55:02.510Z,4.271
2024-02-24T07:58:02.166Z,2.120
2024-02-24T07:59:01.854Z,5.160
2024-02-24T08:00:02.733Z,8.498
2024-02-24T08:01:02.544Z,3.417
2024-02-24T08:02:02.574Z,3.080
2024-02-24T08:03:02.613Z,4.680
2024-02-24T08:06:02.345Z,4.720
2024-02-24T08:07:02.983Z,3.698
2024-02-24T08:08:02.196Z,5.858
2024-02-24T08:10:02.758Z,3.384
2024-02-24T08:11:04.505Z,5.898
2024-02-24T08:13:02.126Z,2.480
2024-02-24T08:15:02.906Z,4.328
2024-02-24T08:16:01.773Z,5.614
2024-02-24T08:17:02.417Z,6.080
2024-02-24T08:18:02.403Z,6.720
2024-02-24T08:19:01.816Z,5.600
2024-02-24T08:20:02.210Z,6.400
2024-02-24T08:21:02.255Z,5.360
2024-02-24T08:22:02.418Z,5.680
2024-02-24T08:23:02.147Z,7.400
2024-02-24T08:24:01.920Z,6.160
2024-02-24T08:25:02.660Z,5.760
2024-02-24T08:26:01.862Z,5.840
2024-02-24T08:28:02.436Z,3.000
2024-02-24T08:29:02.127Z,2.760
2024-02-24T08:30:02.588Z,2.880
2024-02-24T08:31:02.429Z,3.680
2024-02-24T08:32:02.530Z,10.600
2024-02-24T08:33:02.514Z,9.280
2024-02-24T08:34:01.896Z,10.280
2024-02-24T08:35:02.586Z,7.720
2024-02-24T08:36:03.038Z,5.390
2024-02-24T08:38:02.099Z,4.600
2024-02-24T08:39:02.312Z,3.120
2024-02-24T08:40:02.443Z,2.680
2024-02-24T08:41:02.086Z,5.520
2024-02-24T08:42:01.913Z,6.520
2024-02-24T08:43:02.548Z,5.320
2024-02-24T08:44:02.216Z,2.240
2024-02-24T08:46:02.634Z,5.430
2024-02-24T08:47:02.043Z,7.810
2024-02-24T08:48:02.028Z,8.920
2024-02-24T08:49:02.772Z,11.292
2024-02-24T08:50:02.527Z,9.641
2024-02-24T08:53:02.020Z,6.720
2024-02-24T08:54:02.833Z,6.767
2024-02-24T08:55:02.475Z,3.986
2024-02-24T08:56:02.188Z,1.600
2024-02-24T08:57:02.045Z,4.360
2024-02-24T09:00:02.567Z,8.868
2024-02-24T09:01:02.304Z,8.120
2024-02-24T09:02:02.129Z,7.080
2024-02-24T09:03:02.002Z,4.040
2024-02-24T09:04:02.156Z,6.760
2024-02-24T09:06:02.228Z,5.600
2024-02-24T09:07:01.888Z,6.680
2024-02-24T09:08:02.302Z,6.560
2024-02-24T09:09:02.104Z,5.200
2024-02-24T09:12:02.710Z,7.600
2024-02-24T09:13:02.732Z,10.072
2024-02-24T09:14:02.428Z,6.346
2024-02-24T09:16:02.006Z,4.480
2024-02-24T09:18:02.646Z,3.480
2024-02-24T09:19:02.217Z,9.240
2024-02-24T09:20:02.161Z,7.680
2024-02-24T09:21:02.366Z,4.560
2024-02-24T09:22:02.543Z,5.640
2024-02-24T09:23:02.277Z,5.320
2024-02-24T09:24:01.953Z,4.200
2024-02-24T09:25:02.665Z,5.548
2024-02-24T09:26:02.367Z,3.661
2024-02-24T09:28:02.053Z,7.240
2024-02-24T09:29:02.127Z,7.520
2024-02-24T09:30:02.030Z,6.600
2024-02-24T09:31:01.812Z,6.960
2024-02-24T09:32:02.621Z,6.020
2024-02-24T09:33:02.570Z,7.566
2024-02-24T09:34:02.657Z,7.280
2024-02-24T09:37:02.410Z,7.720
2024-02-24T09:38:02.116Z,11.920
2024-02-24T09:39:01.911Z,9.400
2024-02-24T09:40:05.310Z,8.734
2024-02-24T09:41:02.223Z,8.054
2024-02-24T09:43:01.906Z,8.000
2024-02-24T09:44:02.624Z,7.480
2024-02-24T09:45:02.459Z,5.640
2024-02-24T09:46:02.101Z,6.080
2024-02-24T09:49:02.874Z,4.720
2024-02-24T09:50:02.160Z,6.102
2024-02-24T09:51:02.461Z,5.680
2024-02-24T09:52:02.306Z,6.640
2024-02-24T09:55:02.717Z,8.380
2024-02-24T09:56:02.404Z,6.712
2024-02-24T09:59:01.937Z,5.160
2024-02-24T10:00:02.044Z,7.600
2024-02-24T10:01:02.070Z,7.200
2024-02-24T10:02:01.928Z,7.040
2024-02-24T10:03:02.902Z,9.561
2024-02-24T10:04:02.416Z,7.973
2024-02-24T10:05:02.450Z,9.080
2024-02-24T10:06:03.034Z,8.520
2024-02-24T10:08:02.412Z,8.461
2024-02-24T10:10:01.899Z,9.040
2024-02-24T10:11:02.607Z,10.560
2024-02-24T10:12:01.941Z,9.280
2024-02-24T10:13:02.105Z,6.560
2024-02-24T10:15:02.589Z,9.040
2024-02-24T10:16:02.225Z,10.440
2024-02-24T10:17:01.892Z,8.360
2024-02-24T10:18:03.370Z,7.948
2024-02-24T10:19:02.346Z,7.322
2024-02-24T10:20:02.200Z,7.400
2024-02-24T10:21:02.262Z,9.880
2024-02-24T10:22:02.042Z,11.600
2024-02-24T10:25:02.332Z,11.520
2024-02-24T10:26:02.302Z,11.960
2024-02-24T10:27:02.366Z,9.960
2024-02-24T10:28:02.158Z,11.240
2024-02-24T10:29:02.416Z,8.640
2024-02-24T10:30:02.668Z,8.640
2024-02-24T10:31:02.961Z,9.760
2024-02-24T10:32:02.636Z,8.341
2024-02-24T10:33:02.644Z,8.746
2024-02-24T10:34:02.344Z,8.600
2024-02-24T10:36:02.799Z,9.325
2024-02-24T10:38:18.417Z,8.760
2024-02-24T10:40:02.394Z,11.360
2024-02-24T10:41:02.057Z,13.040
2024-02-24T10:42:01.852Z,11.800
2024-02-24T10:43:02.048Z,11.920
2024-02-24T10:44:10.098Z,12.240
2024-02-24T10:45:02.415Z,10.040
2024-02-24T10:46:02.177Z,6.920
2024-02-24T10:48:02.214Z,12.440
2024-02-24T10:49:02.178Z,11.160
2024-02-24T10:50:01.934Z,14.120
2024-02-24T10:51:01.892Z,12.760
2024-02-24T10:52:01.945Z,14.160
2024-02-24T10:53:02.830Z,10.269
2024-02-24T10:54:02.132Z,6.468
2024-02-24T10:55:02.248Z,11.240
2024-02-24T10:56:02.019Z,12.560
2024-02-24T10:57:03.106Z,9.757
2024-02-24T10:58:01.852Z,7.403
2024-02-24T10:59:02.531Z,8.640
2024-02-24T11:00:02.367Z,12.080
2024-02-24T11:01:02.540Z,11.880
2024-02-24T11:02:02.411Z,8.680
2024-02-24T11:03:02.489Z,10.880
2024-02-24T11:05:02.005Z,14.400
2024-02-24T11:06:02.214Z,15.640
2024-02-24T11:07:02.817Z,13.840
2024-02-24T11:08:02.735Z,12.040
2024-02-24T11:09:02.812Z,6.885
2024-02-24T11:10:02.558Z,7.688
2024-02-24T11:13:01.836Z,8.120
2024-02-24T11:14:10.574Z,12.118
2024-02-24T11:15:02.672Z,11.520
2024-02-24T11:16:01.868Z,11.634
2024-02-24T11:17:02.802Z,15.344
2024-02-24T11:18:03.143Z,9.681
2024-02-24T11:19:01.913Z,10.520
2024-02-24T11:20:02.057Z,13.520
2024-02-24T11:21:02.143Z,18.440
2024-02-24T11:24:02.266Z,18.800
2024-02-24T11:25:02.203Z,15.000
2024-02-24T11:26:01.846Z,8.800
2024-02-24T11:27:02.539Z,15.680
2024-02-24T11:28:02.395Z,17.560
2024-02-24T11:29:02.127Z,16.120
2024-02-24T11:30:02.070Z,11.360
2024-02-24T11:31:02.089Z,11.840
2024-02-24T11:32:01.750Z,9.760
2024-02-24T11:33:02.379Z,13.760
2024-02-24T11:35:02.656Z,11.200
2024-02-24T11:38:02.244Z,13.200
2024-02-24T11:39:02.031Z,11.640
2024-02-24T11:40:01.785Z,15.160
2024-02-24T11:41:02.572Z,13.800
2024-02-24T11:42:02.591Z,9.960
2024-02-24T11:43:02.312Z,13.040
2024-02-24T11:45:02.154Z,12.280
2024-02-24T11:46:02.278Z,17.120
2024-02-24T11:47:02.352Z,14.920
2024-02-24T11:48:02.522Z,18.520
2024-02-24T11:49:02.594Z,15.320
2024-02-24T11:51:02.335Z,7.480
2024-02-24T11:52:01.994Z,9.760
2024-02-24T11:53:02.722Z,12.826
2024-02-24T11:54:02.455Z,12.447
2024-02-24T11:56:01.922Z,14.880
2024-02-24T11:57:05.734Z,13.416
2024-02-24T11:58:02.405Z,18.183
2024-02-24T12:00:02.048Z,13.840
2024-02-24T12:01:02.172Z,12.760
2024-02-24T12:02:02.299Z,13.720
2024-02-24T12:03:02.084Z,12.520
2024-02-24T12:04:01.865Z,12.640
2024-02-24T12:05:02.101Z,11.400
2024-02-24T12:06:01.892Z,10.280
2024-02-24T12:07:02.460Z,9.520
2024-02-24T12:08:02.709Z,9.954
2024-02-24T12:09:02.492Z,9.681
2024-02-24T12:11:02.389Z,15.240
2024-02-24T12:12:02.781Z,12.551
2024-02-24T12:14:02.364Z,10.658
2024-02-24T12:15:03.956Z,7.560
2024-02-24T12:16:02.016Z,10.000
2024-02-24T12:17:01.822Z,11.160
2024-02-24T12:18:02.978Z,9.920
2024-02-24T12:19:01.838Z,14.120
2024-02-24T12:20:02.104Z,11.840
2024-02-24T12:21:01.929Z,9.560
2024-02-24T12:22:02.155Z,10.560
2024-02-24T12:23:01.941Z,7.440
2024-02-24T12:24:02.951Z,12.640
2024-02-24T12:25:01.926Z,11.600
2024-02-24T12:26:01.723Z,8.080
2024-02-24T12:27:02.872Z,11.080
2024-02-24T12:29:02.512Z,10.617
2024-02-24T12:30:02.357Z,7.280
2024-02-24T12:31:02.087Z,7.520
2024-02-24T12:32:01.776Z,7.320
2024-02-24T12:33:02.857Z,14.040
2024-02-24T12:34:02.394Z,10.360
2024-02-24T12:35:02.615Z,9.880
2024-02-24T12:36:02.508Z,4.080
2024-02-24T12:37:02.672Z,7.790
2024-02-24T12:38:02.510Z,10.495
2024-02-24T12:39:02.519Z,13.600
2024-02-24T12:42:02.811Z,8.240
2024-02-24T12:44:01.771Z,8.624
2024-02-24T12:45:02.775Z,11.560
2024-02-24T12:47:02.378Z,11.200
2024-02-24T12:48:02.626Z,9.320
2024-02-24T12:49:01.927Z,9.720
2024-02-24T12:50:02.690Z,11.640
2024-02-24T12:51:01.897Z,9.160
2024-02-24T12:52:01.990Z,11.000
2024-02-24T12:53:02.689Z,10.466
2024-02-24T12:54:05.807Z,7.688
2024-02-24T12:57:02.477Z,3.800
2024-02-24T12:58:02.236Z,6.760
2024-02-24T12:59:01.897Z,6.560
2024-02-24T13:00:01.950Z,5.240
2024-02-24T13:01:01.867Z,4.880
2024-02-24T13:02:01.936Z,12.640
2024-02-24T13:03:02.923Z,14.675
2024-02-24T13:04:02.111Z,11.105
2024-02-24T13:05:02.338Z,9.120
2024-02-24T13:06:02.848Z,8.720
2024-02-24T13:07:02.376Z,12.400
2024-02-24T13:09:02.223Z,6.200
2024-02-24T13:10:01.821Z,10.200
2024-02-24T13:11:01.977Z,9.200
2024-02-24T13:12:02.645Z,7.760
2024-02-24T13:13:01.994Z,7.200
2024-02-24T13:14:02.740Z,5.587
2024-02-24T13:15:01.784Z,6.875
2024-02-24T13:16:02.600Z,7.000
2024-02-24T13:18:02.126Z,10.000
2024-02-24T13:19:03.028Z,10.308
2024-02-24T13:20:02.029Z,13.261
2024-02-24T13:21:02.962Z,7.357
2024-02-24T13:22:02.822Z,9.600
2024-02-24T13:23:02.560Z,8.217
2024-02-24T13:25:02.156Z,12.000
2024-02-24T13:26:01.837Z,8.880
2024-02-24T13:27:02.595Z,15.320
2024-02-24T13:28:02.362Z,10.360
2024-02-24T13:30:02.499Z,6.880
2024-02-24T13:32:02.087Z,12.400
2024-02-24T13:33:01.943Z,14.200
2024-02-24T13:34:02.133Z,9.960
2024-02-24T13:35:02.422Z,9.720
2024-02-24T13:36:02.331Z,11.400
2024-02-24T13:37:03.335Z,12.840
2024-02-24T13:38:01.789Z,11.960
2024-02-24T13:39:02.876Z,7.720
2024-02-24T13:40:01.728Z,12.320
2024-02-24T13:41:02.388Z,11.360
2024-02-24T13:43:02.149Z,8.360
2024-02-24T13:44:01.849Z,7.160
2024-02-24T13:45:02.116Z,6.120
2024-02-24T13:46:02.021Z,5.200
2024-02-24T13:47:02.694Z,9.010
2024-02-24T13:48:02.695Z,10.414
2024-02-24T13:49:02.811Z,9.880
2024-02-24T13:51:02.389Z,9.960
2024-02-24T13:52:02.098Z,10.080
2024-02-24T13:53:01.803Z,8.360
2024-02-24T13:54:01.905Z,9.040
2024-02-24T13:55:02.817Z,10.111
2024-02-24T13:56:02.682Z,8.258
2024-02-24T13:57:02.702Z,8.160
2024-02-24T13:58:01.728Z,8.200
2024-02-24T13:59:02.536Z,10.360
2024-02-24T14:00:02.462Z,9.560
2024-02-24T14:02:02.320Z,12.400
2024-02-24T14:03:02.126Z,9.480
2024-02-24T14:06:02.488Z,8.480
2024-02-24T14:08:02.001Z,10.640
2024-02-24T14:09:02.035Z,8.840
2024-02-24T14:10:02.502Z,7.640
2024-02-24T14:11:02.305Z,5.480
2024-02-24T14:12:02.766Z,7.440
2024-02-24T14:13:01.892Z,7.000
2024-02-24T14:14:02.646Z,9.246
2024-02-24T14:15:02.573Z,7.485
2024-02-24T14:17:02.069Z,10.560
2024-02-24T14:19:02.956Z,7.318
2024-02-24T14:20:08.342Z,6.549
2024-02-24T14:22:02.091Z,4.000
2024-02-24T14:23:02.763Z,7.633
2024-02-24T14:24:02.678Z,8.420
2024-02-24T14:25:02.631Z,8.577
2024-02-24T14:26:02.528Z,7.119
2024-02-24T14:27:02.499Z,5.400
2024-02-24T14:28:02.359Z,4.480
2024-02-24T14:29:06.286Z,3.840
2024-02-24T14:31:02.597Z,4.440
2024-02-24T14:32:02.273Z,8.520
2024-02-24T14:35:01.813Z,6.600
2024-02-24T14:36:02.088Z,7.720
2024-02-24T14:37:02.046Z,7.480
2024-02-24T14:38:02.679Z,5.705
2024-02-24T14:39:02.763Z,4.678
2024-02-24T14:40:01.733Z,4.280
2024-02-24T14:41:02.393Z,5.040
2024-02-24T14:42:02.160Z,5.000
2024-02-24T14:43:02.275Z,2.800
2024-02-24T14:45:02.766Z,3.030
2024-02-24T14:46:02.488Z,5.166
2024-02-24T14:47:02.169Z,2.800
2024-02-24T14:48:05.972Z,2.760
2024-02-24T14:50:02.334Z,3.040
2024-02-24T14:51:02.177Z,1.240
2024-02-24T14:52:02.060Z,6.640
2024-02-24T14:55:02.632Z,4.280
2024-02-24T14:56:02.317Z,2.888
2024-02-24T14:58:02.030Z,7.560
2024-02-24T14:59:02.737Z,9.128
2024-02-24T15:00:02.752Z,9.397
2024-02-24T15:01:02.846Z,7.869
2024-02-24T15:03:10.637Z,4.092
2024-02-24T15:04:01.950Z,6.590
2024-02-24T15:05:01.848Z,4.880
2024-02-24T15:06:02.150Z,4.040
2024-02-24T15:07:02.774Z,3.069
2024-02-24T15:09:02.624Z,4.678
2024-02-24T15:11:01.917Z,2.960
2024-02-24T15:12:02.124Z,2.960
2024-02-24T15:13:01.980Z,3.920
2024-02-24T15:14:02.741Z,5.351
2024-02-24T15:15:02.652Z,5.492
2024-02-24T15:16:02.674Z,5.233
2024-02-24T15:17:02.377Z,2.034
2024-02-24T15:18:02.381Z,2.400
2024-02-24T15:19:02.831Z,3.240
2024-02-24T15:20:03.833Z,3.840
2024-02-24T15:21:02.233Z,3.320
2024-02-24T15:22:02.179Z,3.560
2024-02-24T15:23:01.868Z,2.440
2024-02-24T15:24:02.276Z,0.440
2024-02-24T15:25:02.320Z,0.760
2024-02-24T15:26:02.123Z,3.520
2024-02-24T15:28:02.629Z,3.226
2024-02-24T15:29:02.586Z,1.627
2024-02-24T15:32:02.061Z,2.120
2024-02-24T15:33:02.305Z,1.840
2024-02-24T15:34:02.742Z,2.640
2024-02-24T15:35:01.790Z,2.720
2024-02-24T15:36:02.036Z,1.160
2024-02-24T15:37:02.349Z,2.400
2024-02-24T15:38:02.003Z,3.520
2024-02-24T15:39:03.025Z,2.400
2024-02-24T15:40:01.801Z,1.180
2024-02-24T15:41:02.528Z,1.120
2024-02-24T15:43:02.023Z,0.000
2024-02-24T15:44:02.690Z,1.849
2024-02-24T15:45:02.529Z,0.325
2024-02-24T15:48:02.586Z,3.600
2024-02-24T15:49:02.023Z,2.720
2024-02-24T15:50:02.322Z,4.040
2024-02-24T15:51:02.519Z,3.040
2024-02-24T15:52:03.681Z,3.760
2024-02-24T15:53:01.732Z,4.880
2024-02-24T15:54:02.575Z,5.000
2024-02-24T15:55:02.373Z,5.400
2024-02-24T15:56:02.492Z,5.440